createdAt,value
2022-10-20T00:01:29.187Z,6.45
2022-10-20T00:03:57.792Z,6.15
2022-10-20T00:06:29.797Z,3.83
2022-10-20T00:09:00.825Z,5.75
2022-10-20T00:11:29.999Z,4.43
2022-10-20T00:13:59.316Z,4.10
2022-10-20T00:16:30.179Z,4.65
2022-10-20T00:18:58.802Z,4.38
2022-10-20T00:21:29.289Z,4.55
2022-10-20T00:24:00.016Z,4.32
2022-10-20T00:26:30.421Z,3.97
2022-10-20T00:28:58.962Z,3.83
2022-10-20T00:31:29.972Z,3.60
2022-10-20T00:33:57.734Z,3.95
2022-10-20T00:36:25.746Z,3.65
2022-10-20T00:39:01.582Z,5.65
2022-10-20T00:41:29.837Z,3.78
2022-10-20T00:44:03.630Z,3.15
2022-10-20T00:46:40.040Z,2.67
2022-10-20T00:49:22.876Z,2.55
2022-10-20T00:51:53.166Z,3.67
2022-10-20T00:54:26.187Z,3.65
2022-10-20T00:56:56.147Z,4.22
2022-10-20T00:59:30.733Z,5.88
2022-10-20T01:01:59.900Z,2.30
2022-10-20T01:04:30.934Z,3.33
2022-10-20T01:06:59.624Z,2.92
2022-10-20T01:09:27.603Z,2.25
2022-10-20T01:12:19.781Z,2.25
2022-10-20T01:15:11.628Z,3.70
2022-10-20T01:17:57.486Z,1.95
2022-10-20T01:20:51.725Z,2.65
2022-10-20T01:23:58.779Z,2.92
2022-10-20T01:27:07.112Z,1.95
2022-10-20T01:29:44.871Z,2.50
2022-10-20T01:32:38.778Z,2.90
2022-10-20T01:35:21.815Z,3.00
2022-10-20T01:38:30.686Z,1.40
2022-10-20T01:41:07.708Z,1.88
2022-10-20T01:43:38.757Z,3.13
2022-10-20T01:46:09.621Z,1.67
2022-10-20T01:48:38.855Z,2.53
2022-10-20T01:51:06.825Z,2.53
2022-10-20T01:53:34.519Z,3.35
2022-10-20T01:56:04.366Z,1.95
2022-10-20T01:59:04.553Z,1.95
2022-10-20T02:02:05.199Z,2.17
2022-10-20T02:04:49.349Z,2.70
2022-10-20T02:07:27.818Z,2.75
2022-10-20T02:10:23.127Z,1.85
2022-10-20T02:12:57.246Z,4.05
2022-10-20T02:15:28.649Z,2.13
2022-10-20T02:18:01.878Z,2.13
2022-10-20T02:20:32.027Z,1.98
2022-10-20T02:23:00.988Z,1.55
2022-10-20T02:25:29.972Z,2.13
2022-10-20T02:28:02.995Z,1.52
2022-10-20T02:30:31.814Z,1.75
2022-10-20T02:32:59.146Z,1.48
2022-10-20T02:35:35.241Z,1.35
2022-10-20T02:38:03.642Z,3.25
2022-10-20T02:40:31.502Z,7.88
2022-10-20T02:42:58.907Z,3.53
2022-10-20T02:45:26.297Z,4.43
2022-10-20T02:47:53.913Z,4.30
2022-10-20T02:50:21.327Z,5.47
2022-10-20T02:52:48.724Z,7.03
2022-10-20T02:55:16.320Z,3.78
2022-10-20T02:57:43.881Z,2.42
2022-10-20T03:00:12.415Z,3.70
2022-10-20T03:02:40.067Z,6.00
2022-10-20T03:05:07.956Z,5.90
2022-10-20T03:07:36.044Z,1.75
2022-10-20T03:10:04.322Z,6.75
2022-10-20T03:12:32.330Z,1.23
2022-10-20T03:14:59.962Z,4.30
2022-10-20T03:17:27.305Z,2.55
2022-10-20T03:19:54.939Z,2.47
2022-10-20T03:22:22.598Z,2.60
2022-10-20T03:24:50.062Z,1.60
2022-10-20T03:27:17.771Z,3.25
2022-10-20T03:29:45.430Z,1.27
2022-10-20T03:32:13.005Z,1.90
2022-10-20T03:34:40.283Z,3.63
2022-10-20T03:37:07.593Z,1.42
2022-10-20T03:39:34.875Z,1.35
2022-10-20T03:42:02.421Z,3.10
2022-10-20T03:44:30.000Z,11.02
2022-10-20T03:46:57.495Z,1.63
2022-10-20T03:49:25.164Z,1.25
2022-10-20T03:51:52.457Z,3.83
2022-10-20T03:54:20.033Z,2.90
2022-10-20T03:56:47.682Z,1.25
2022-10-20T03:59:15.031Z,1.95
2022-10-20T04:01:45.976Z,1.00
2022-10-20T04:04:13.803Z,1.20
2022-10-20T04:06:41.165Z,3.28
2022-10-20T04:09:08.487Z,3.63
2022-10-20T04:11:36.065Z,3.08
2022-10-20T04:14:03.533Z,4.15
2022-10-20T04:16:30.900Z,9.65
2022-10-20T04:18:58.457Z,2.20
2022-10-20T04:21:26.626Z,6.43
2022-10-20T04:23:54.211Z,2.88
2022-10-20T04:26:21.676Z,12.13
2022-10-20T04:28:49.089Z,5.40
2022-10-20T04:31:16.420Z,3.15
2022-10-20T04:33:43.922Z,5.93
2022-10-20T04:36:13.752Z,4.05
2022-10-20T04:38:41.066Z,4.63
2022-10-20T04:41:08.588Z,2.72
2022-10-20T04:43:36.082Z,5.55
2022-10-20T04:46:08.320Z,3.08
2022-10-20T04:48:37.918Z,4.68
2022-10-20T04:51:09.378Z,5.82
2022-10-20T04:53:37.411Z,3.15
2022-10-20T04:56:10.749Z,6.93
2022-10-20T04:58:38.262Z,4.15
2022-10-20T05:01:09.535Z,5.15
2022-10-20T05:03:37.601Z,7.80
2022-10-20T05:06:18.366Z,4.32
2022-10-20T05:08:48.969Z,6.78
2022-10-20T05:11:17.877Z,7.82
2022-10-20T05:13:45.597Z,12.20
2022-10-20T05:16:13.912Z,7.47
2022-10-20T05:18:41.609Z,7.95
2022-10-20T05:21:19.482Z,6.25
2022-10-20T05:23:47.544Z,5.75
2022-10-20T05:26:19.112Z,7.50
2022-10-20T05:28:49.649Z,13.05
2022-10-20T05:31:19.760Z,4.47
2022-10-20T05:33:50.707Z,8.80
2022-10-20T05:36:22.218Z,9.60
2022-10-20T05:38:52.340Z,6.43
2022-10-20T05:41:24.159Z,5.57
2022-10-20T05:44:02.865Z,8.55
2022-10-20T05:46:33.990Z,9.80
2022-10-20T05:49:03.844Z,13.38
2022-10-20T05:51:35.217Z,7.97
2022-10-20T05:54:03.622Z,8.00
2022-10-20T05:56:32.557Z,10.90
2022-10-20T05:59:00.729Z,13.70
2022-10-20T06:01:40.137Z,13.27
2022-10-20T06:04:09.156Z,11.35
2022-10-20T06:06:37.029Z,10.65
2022-10-20T06:09:07.835Z,10.90
2022-10-20T06:11:39.272Z,12.52
2022-10-20T06:14:08.821Z,12.10
2022-10-20T06:16:37.325Z,14.63
2022-10-20T06:19:05.596Z,15.70
2022-10-20T06:21:35.035Z,15.05
2022-10-20T06:24:05.032Z,13.15
2022-10-20T06:26:34.439Z,17.73
2022-10-20T06:29:04.661Z,13.32
2022-10-20T06:31:40.981Z,20.40
2022-10-20T06:34:12.786Z,23.80
2022-10-20T06:36:42.429Z,14.50
2022-10-20T06:39:17.755Z,8.85
2022-10-20T06:41:55.522Z,13.07
2022-10-20T06:44:26.322Z,10.68
2022-10-20T06:46:54.771Z,8.27
2022-10-20T06:49:22.907Z,11.30
2022-10-20T06:51:51.055Z,9.20
2022-10-20T06:54:19.115Z,11.43
2022-10-20T06:56:46.894Z,7.05
2022-10-20T06:59:14.704Z,11.85
2022-10-20T07:01:42.668Z,13.73
2022-10-20T07:04:16.079Z,6.80
2022-10-20T07:06:46.181Z,18.38
2022-10-20T07:09:17.374Z,16.60
2022-10-20T07:11:45.959Z,20.92
2022-10-20T07:14:14.727Z,15.50
2022-10-20T07:16:42.552Z,10.95
2022-10-20T07:19:10.320Z,11.70
2022-10-20T07:21:40.335Z,13.57
2022-10-20T07:24:10.941Z,18.58
2022-10-20T07:26:40.543Z,15.07
2022-10-20T07:29:08.950Z,13.40
2022-10-20T07:31:45.617Z,8.32
2022-10-20T07:34:30.445Z,8.57
2022-10-20T07:36:58.717Z,13.85
2022-10-20T07:39:27.527Z,11.57
2022-10-20T07:41:55.742Z,6.93
2022-10-20T07:44:23.784Z,8.60
2022-10-20T07:46:51.721Z,14.50
2022-10-20T07:52:07.379Z,12.60
2022-10-20T07:54:35.364Z,12.15
2022-10-20T07:57:03.003Z,10.95
2022-10-20T07:59:30.835Z,11.77
2022-10-20T08:01:59.911Z,11.25
2022-10-20T08:04:29.088Z,7.05
2022-10-20T08:06:57.112Z,8.93
2022-10-20T08:09:25.101Z,6.90
2022-10-20T08:11:55.469Z,8.57
2022-10-20T08:14:27.327Z,7.28
2022-10-20T08:16:57.790Z,4.97
2022-10-20T08:22:10.479Z,7.38
2022-10-20T08:24:38.210Z,4.60
2022-10-20T08:27:06.043Z,7.30
2022-10-20T08:29:34.027Z,8.70
2022-10-20T08:32:01.838Z,7.00
2022-10-20T08:34:29.643Z,4.22
2022-10-20T08:36:57.515Z,6.25
2022-10-20T08:39:25.485Z,2.83
2022-10-20T08:42:08.181Z,5.55
2022-10-20T08:44:37.484Z,5.82
2022-10-20T08:47:13.753Z,11.50
2022-10-20T08:49:41.541Z,9.27
2022-10-20T08:52:15.548Z,14.77
2022-10-20T08:54:43.604Z,5.93
2022-10-20T08:57:30.384Z,12.50
2022-10-20T09:00:19.963Z,6.18
2022-10-20T09:02:50.140Z,8.00
2022-10-20T09:05:29.738Z,8.10
2022-10-20T09:07:58.387Z,10.63
2022-10-20T09:10:39.280Z,7.80
2022-10-20T09:13:29.162Z,14.00
2022-10-20T09:16:22.076Z,9.77
2022-10-20T09:19:02.156Z,10.00
2022-10-20T09:21:34.545Z,4.70
2022-10-20T09:24:06.229Z,7.35
2022-10-20T09:29:39.213Z,10.25
2022-10-20T09:32:46.074Z,10.18
2022-10-20T09:35:37.519Z,4.80
2022-10-20T09:38:10.937Z,5.78
2022-10-20T09:40:55.562Z,10.57
2022-10-20T09:43:23.477Z,7.40
2022-10-20T09:45:57.253Z,4.30
2022-10-20T09:48:32.702Z,6.85
2022-10-20T09:51:00.963Z,3.13
2022-10-20T09:53:52.241Z,13.77
2022-10-20T09:56:39.234Z,7.13
2022-10-20T09:59:27.384Z,6.60
2022-10-20T10:02:01.636Z,5.60
2022-10-20T10:04:37.677Z,4.32
2022-10-20T10:07:10.940Z,5.88
2022-10-20T10:09:39.355Z,5.13
2022-10-20T10:12:13.066Z,8.60
2022-10-20T10:14:52.715Z,3.70
2022-10-20T10:17:49.994Z,9.25
2022-10-20T10:20:17.842Z,4.88
2022-10-20T10:22:45.794Z,8.38
2022-10-20T10:25:27.652Z,5.85
2022-10-20T10:28:00.786Z,7.03
2022-10-20T10:30:32.248Z,7.50
2022-10-20T10:33:00.336Z,4.57
2022-10-20T10:35:42.953Z,3.30
2022-10-20T10:38:12.278Z,5.78
2022-10-20T10:40:53.401Z,8.10
2022-10-20T10:43:43.790Z,7.97
2022-10-20T10:46:38.041Z,6.72
2022-10-20T10:49:24.141Z,4.80
2022-10-20T10:52:31.200Z,6.00
2022-10-20T10:55:48.388Z,10.70
2022-10-20T10:58:42.301Z,23.63
2022-10-20T11:01:10.068Z,11.40
2022-10-20T11:04:11.387Z,9.52
2022-10-20T11:06:54.197Z,10.95
2022-10-20T11:09:55.537Z,6.10
2022-10-20T11:12:47.692Z,9.20
2022-10-20T11:15:38.273Z,5.93
2022-10-20T11:18:23.296Z,11.52
2022-10-20T11:21:15.782Z,6.82
2022-10-20T11:24:07.093Z,5.13
2022-10-20T11:26:43.733Z,9.07
2022-10-20T11:29:38.423Z,12.23
2022-10-20T11:32:23.028Z,13.55
2022-10-20T11:35:19.787Z,15.05
2022-10-20T11:38:07.912Z,8.80
2022-10-20T11:40:55.186Z,5.22
2022-10-20T11:44:01.170Z,4.85
2022-10-20T11:46:41.346Z,6.60
2022-10-20T11:49:12.457Z,12.18
2022-10-20T11:51:49.202Z,10.73
2022-10-20T11:54:37.289Z,7.72
2022-10-20T11:57:23.976Z,12.73
2022-10-20T12:00:11.620Z,16.02
2022-10-20T12:03:10.589Z,9.52
2022-10-20T12:06:10.173Z,10.82
2022-10-20T12:09:02.821Z,17.55
2022-10-20T12:11:57.528Z,10.82
2022-10-20T12:14:30.967Z,10.95
2022-10-20T12:17:29.235Z,18.45
2022-10-20T12:20:21.765Z,18.52
2022-10-20T12:22:52.249Z,12.43
2022-10-20T12:25:26.056Z,10.75
2022-10-20T12:28:21.210Z,14.65
2022-10-20T12:30:56.331Z,10.95
2022-10-20T12:34:01.120Z,17.83
2022-10-20T12:36:39.504Z,15.27
2022-10-20T12:39:13.023Z,21.70
2022-10-20T12:42:04.337Z,16.83
2022-10-20T12:44:43.559Z,22.40
2022-10-20T12:47:27.634Z,18.48
2022-10-20T12:50:41.966Z,13.93
2022-10-20T12:53:19.022Z,19.20
2022-10-20T12:56:11.235Z,14.93
2022-10-20T12:59:00.115Z,10.93
2022-10-20T13:01:29.169Z,12.25
2022-10-20T13:03:56.984Z,10.13
2022-10-20T13:06:26.533Z,16.02
2022-10-20T13:09:07.306Z,16.45
2022-10-20T13:11:38.291Z,13.13
2022-10-20T13:14:25.547Z,24.38
2022-10-20T13:17:05.834Z,10.63
2022-10-20T13:19:45.742Z,21.85
2022-10-20T13:22:46.865Z,19.58
2022-10-20T13:25:29.415Z,10.05
2022-10-20T13:28:16.109Z,11.90
2022-10-20T13:30:53.333Z,14.40
2022-10-20T13:33:58.382Z,14.65
2022-10-20T13:36:37.933Z,9.35
2022-10-20T13:39:47.093Z,13.98
2022-10-20T13:42:20.980Z,11.27
2022-10-20T13:45:01.192Z,10.85
2022-10-20T13:47:45.580Z,8.73
2022-10-20T13:50:23.118Z,5.50
2022-10-20T13:52:55.629Z,13.18
2022-10-20T13:55:31.753Z,10.82
2022-10-20T13:58:05.985Z,13.45
2022-10-20T14:00:36.428Z,6.30
2022-10-20T14:03:15.755Z,13.57
2022-10-20T14:05:43.585Z,8.43
2022-10-20T14:08:14.554Z,16.13
2022-10-20T14:10:49.786Z,5.00
2022-10-20T14:13:25.968Z,9.10
2022-10-20T14:15:59.293Z,11.15
2022-10-20T14:18:40.021Z,12.65
2022-10-20T14:21:18.826Z,7.65
2022-10-20T14:23:49.049Z,7.15
2022-10-20T14:26:22.240Z,13.68
2022-10-20T14:28:51.396Z,17.83
2022-10-20T14:31:23.397Z,9.90
2022-10-20T14:33:52.581Z,11.52
2022-10-20T14:36:28.777Z,12.43
2022-10-20T14:39:00.916Z,13.52
2022-10-20T14:41:34.320Z,12.57
2022-10-20T14:44:07.333Z,15.90
2022-10-20T14:46:47.246Z,16.02
2022-10-20T14:49:20.990Z,17.13
2022-10-20T14:52:04.256Z,44.63
2022-10-20T14:54:36.822Z,66.45
2022-10-20T14:57:17.149Z,135.50
2022-10-20T15:00:06.304Z,130.73
2022-10-20T15:02:38.932Z,76.38
2022-10-20T15:05:42.458Z,77.88
2022-10-20T15:08:21.060Z,69.30
2022-10-20T15:10:48.936Z,67.70
2022-10-20T15:13:31.321Z,53.42
2022-10-20T15:16:03.126Z,68.03
2022-10-20T15:18:31.097Z,52.45
2022-10-20T15:20:59.063Z,53.75
2022-10-20T15:23:28.624Z,51.25
2022-10-20T15:26:09.847Z,45.00
2022-10-20T15:28:43.327Z,60.08
2022-10-20T15:31:14.264Z,29.90
2022-10-20T15:33:42.516Z,26.55
2022-10-20T15:36:21.991Z,40.65
2022-10-20T15:38:50.780Z,31.23
2022-10-20T15:41:26.752Z,43.80
2022-10-20T15:43:54.729Z,25.90
2022-10-20T15:46:22.657Z,28.00
2022-10-20T15:48:50.430Z,30.52
2022-10-20T15:51:27.689Z,24.83
2022-10-20T15:53:57.076Z,22.77
2022-10-20T15:56:25.366Z,24.45
2022-10-20T15:58:53.427Z,45.63
2022-10-20T16:01:22.270Z,32.30
2022-10-20T16:03:50.168Z,27.42
2022-10-20T16:06:19.259Z,35.88
2022-10-20T16:08:48.674Z,43.15
2022-10-20T16:11:18.268Z,35.13
2022-10-20T16:13:46.410Z,30.55
2022-10-20T16:16:16.931Z,18.15
2022-10-20T16:18:45.026Z,30.60
2022-10-20T16:21:13.372Z,20.52
2022-10-20T16:23:43.951Z,22.88
2022-10-20T16:26:14.282Z,25.40
2022-10-20T16:28:42.925Z,23.90
2022-10-20T16:31:14.331Z,17.20
2022-10-20T16:33:42.375Z,22.85
2022-10-20T16:36:12.356Z,18.13
2022-10-20T16:38:40.588Z,16.17
2022-10-20T16:41:14.433Z,15.75
2022-10-20T16:43:43.979Z,22.05
2022-10-20T16:46:12.814Z,25.83
2022-10-20T16:48:43.827Z,13.05
2022-10-20T16:51:15.398Z,16.45
2022-10-20T16:53:43.437Z,22.83
2022-10-20T16:56:13.971Z,16.02
2022-10-20T16:58:44.656Z,11.18
2022-10-20T17:01:13.906Z,13.43
2022-10-20T17:03:47.202Z,20.23
2022-10-20T17:06:16.569Z,16.10
2022-10-20T17:08:44.554Z,18.42
2022-10-20T17:11:14.793Z,19.10
2022-10-20T17:13:43.388Z,11.43
2022-10-20T17:16:13.853Z,18.90
2022-10-20T17:18:42.197Z,13.07
2022-10-20T17:21:10.506Z,17.10
2022-10-20T17:23:42.704Z,20.38
2022-10-20T17:26:20.343Z,11.05
2022-10-20T17:28:49.357Z,9.15
2022-10-20T17:31:18.373Z,8.38
2022-10-20T17:33:49.088Z,13.07
2022-10-20T17:36:17.390Z,28.35
2022-10-20T17:38:45.243Z,16.60
2022-10-20T17:41:15.881Z,12.70
2022-10-20T17:43:43.929Z,14.80
2022-10-20T17:46:16.787Z,22.67
2022-10-20T17:48:45.319Z,18.90
2022-10-20T17:51:19.894Z,13.40
2022-10-20T17:53:50.183Z,16.92
2022-10-20T17:56:23.326Z,25.88
2022-10-20T17:58:52.352Z,19.67
2022-10-20T18:01:25.376Z,14.65
2022-10-20T18:03:58.843Z,18.13
2022-10-20T18:06:32.699Z,19.20
2022-10-20T18:09:06.130Z,12.55
2022-10-20T18:11:35.170Z,13.75
2022-10-20T18:14:03.803Z,14.52
2022-10-20T18:16:33.171Z,13.70
2022-10-20T18:19:01.303Z,13.63
2022-10-20T18:21:30.329Z,23.02
2022-10-20T18:24:08.743Z,12.02
2022-10-20T18:26:38.276Z,12.07
2022-10-20T18:29:08.255Z,20.42
2022-10-20T18:31:37.505Z,14.57
2022-10-20T18:34:08.432Z,7.47
2022-10-20T18:36:40.406Z,14.95
2022-10-20T18:39:11.414Z,7.88
2022-10-20T18:41:41.047Z,18.95
2022-10-20T18:44:15.575Z,22.00
2022-10-20T18:49:26.285Z,14.45
2022-10-20T18:51:54.299Z,13.73
2022-10-20T18:54:24.205Z,16.65
2022-10-20T18:56:51.957Z,20.73
2022-10-20T18:59:19.769Z,11.32
2022-10-20T19:01:48.591Z,15.73
2022-10-20T19:04:16.668Z,14.23
2022-10-20T19:06:46.834Z,7.53
2022-10-20T19:09:17.518Z,15.70
2022-10-20T19:11:46.369Z,8.27
2022-10-20T19:14:15.056Z,9.43
2022-10-20T19:16:46.116Z,17.27
2022-10-20T19:19:14.067Z,11.75
2022-10-20T19:21:44.457Z,9.18
2022-10-20T19:24:18.596Z,11.07
2022-10-20T19:27:02.288Z,10.38
2022-10-20T19:29:37.014Z,6.53
2022-10-20T19:32:06.162Z,11.82
2022-10-20T19:34:36.404Z,8.82
2022-10-20T19:37:05.177Z,9.68
2022-10-20T19:39:41.268Z,11.50
2022-10-20T19:42:10.160Z,8.75
2022-10-20T19:44:38.455Z,8.82
2022-10-20T19:47:06.750Z,10.00
2022-10-20T19:49:35.030Z,11.68
2022-10-20T19:52:03.700Z,11.75
2022-10-20T19:54:31.524Z,13.32
2022-10-20T19:56:59.325Z,12.30
2022-10-20T19:59:27.171Z,21.70
2022-10-20T20:01:55.055Z,9.98
2022-10-20T20:04:22.971Z,8.30
2022-10-20T20:06:50.619Z,31.55
2022-10-20T20:09:18.759Z,28.75
2022-10-20T20:11:46.819Z,28.50
2022-10-20T20:14:17.521Z,22.92
2022-10-20T20:16:46.410Z,20.25
2022-10-20T20:19:15.897Z,14.52
2022-10-20T20:21:43.801Z,12.50
2022-10-20T20:24:13.218Z,8.20
2022-10-20T20:26:41.120Z,16.00
2022-10-20T20:29:09.495Z,19.92
2022-10-20T20:31:37.321Z,14.88
2022-10-20T20:34:05.319Z,10.13
2022-10-20T20:36:33.067Z,10.90
2022-10-20T20:39:01.449Z,10.38
2022-10-20T20:41:32.514Z,14.02
2022-10-20T20:44:05.470Z,7.13
2022-10-20T20:46:36.923Z,10.77
2022-10-20T20:49:05.359Z,11.68
2022-10-20T20:51:36.130Z,11.25
2022-10-20T20:54:04.125Z,11.77
2022-10-20T20:56:31.954Z,8.80
2022-10-20T20:58:59.680Z,7.78
2022-10-20T21:01:29.442Z,5.18
2022-10-20T21:03:58.696Z,9.65
2022-10-20T21:06:33.871Z,12.00
2022-10-20T21:09:12.357Z,9.63
2022-10-20T21:11:40.056Z,9.50
2022-10-20T21:14:07.888Z,7.18
2022-10-20T21:16:37.152Z,9.38
2022-10-20T21:19:09.793Z,9.27
2022-10-20T21:21:44.140Z,11.55
2022-10-20T21:24:12.992Z,6.68
2022-10-20T21:26:40.805Z,8.50
2022-10-20T21:29:08.757Z,8.02
2022-10-20T21:31:36.821Z,9.90
2022-10-20T21:34:05.554Z,17.60
2022-10-20T21:36:35.701Z,8.57
2022-10-20T21:39:05.741Z,6.43
2022-10-20T21:41:35.040Z,5.47
2022-10-20T21:44:05.380Z,5.38
2022-10-20T21:46:44.045Z,9.75
2022-10-20T21:49:14.308Z,6.28
2022-10-20T21:51:45.641Z,8.10
2022-10-20T21:54:15.915Z,7.15
2022-10-20T21:56:47.488Z,5.10
2022-10-20T21:59:19.495Z,9.93
2022-10-20T22:01:48.855Z,5.50
2022-10-20T22:04:18.472Z,5.43
2022-10-20T22:06:46.272Z,5.03
2022-10-20T22:09:15.117Z,6.25
2022-10-20T22:11:45.722Z,9.45
2022-10-20T22:14:13.596Z,6.65
2022-10-20T22:16:42.307Z,7.43
2022-10-20T22:19:21.352Z,7.82
2022-10-20T22:21:50.867Z,4.95
2022-10-20T22:24:19.646Z,4.97
2022-10-20T22:26:48.501Z,5.13
2022-10-20T22:29:16.386Z,4.80
2022-10-20T22:31:44.224Z,3.80
2022-10-20T22:34:12.573Z,4.72
2022-10-20T22:36:41.061Z,5.43
2022-10-20T22:39:09.298Z,5.45
2022-10-20T22:41:37.647Z,5.53
2022-10-20T22:44:06.775Z,5.57
2022-10-20T22:46:34.906Z,2.38
2022-10-20T22:49:03.024Z,4.78
2022-10-20T22:51:30.812Z,4.57
2022-10-20T22:53:59.363Z,2.78
2022-10-20T22:56:27.466Z,6.15
2022-10-20T22:58:55.738Z,7.35
2022-10-20T23:01:24.204Z,6.07
2022-10-20T23:03:55.306Z,5.70
2022-10-20T23:06:25.645Z,4.97
2022-10-20T23:08:55.173Z,4.28
2022-10-20T23:11:23.270Z,5.10
2022-10-20T23:13:51.379Z,3.55
2022-10-20T23:16:19.901Z,6.60
2022-10-20T23:18:48.378Z,3.50
2022-10-20T23:21:16.660Z,3.95
2022-10-20T23:23:45.145Z,6.22
2022-10-20T23:26:13.228Z,3.40
2022-10-20T23:28:41.160Z,3.40
2022-10-20T23:31:20.876Z,4.20
2022-10-20T23:33:50.199Z,2.70
2022-10-20T23:36:18.368Z,3.90
2022-10-20T23:38:47.238Z,4.75
2022-10-20T23:41:15.346Z,5.63
2022-10-20T23:43:43.115Z,3.83
2022-10-20T23:46:12.409Z,5.32
2022-10-20T23:48:40.317Z,3.17
2022-10-20T23:51:08.478Z,3.50
2022-10-20T23:53:36.657Z,7.30
2022-10-20T23:56:04.778Z,3.67
2022-10-20T23:58:32.585Z,2.95
